createdAt,value
2022-11-28T00:01:30.989Z,101025.28
2022-11-28T00:03:57.842Z,101034.28
2022-11-28T00:06:24.573Z,101029.31
2022-11-28T00:08:51.377Z,101031.91
2022-11-28T00:11:18.106Z,101025.56
2022-11-28T00:13:45.079Z,101012.44
2022-11-28T00:16:16.799Z,101011.94
2022-11-28T00:18:44.069Z,101001.63
2022-11-28T00:21:12.654Z,101005.53
2022-11-28T00:23:39.972Z,100982.25
2022-11-28T00:26:19.688Z,100990.47
2022-11-28T00:28:46.468Z,100985.94
2022-11-28T00:31:21.834Z,100989.66
2022-11-28T00:33:48.454Z,100988.09
2022-11-28T00:36:15.366Z,100993.53
2022-11-28T00:38:42.252Z,100987.22
2022-11-28T00:41:11.924Z,100979.03
2022-11-28T00:43:38.329Z,100972.50
2022-11-28T00:46:05.007Z,100963.47
2022-11-28T00:48:35.556Z,100954.88
2022-11-28T00:51:06.173Z,100938.84
2022-11-28T00:53:32.664Z,100926.06
2022-11-28T00:55:59.099Z,100931.19
2022-11-28T00:58:25.515Z,100943.72
2022-11-28T01:00:51.993Z,100925.78
2022-11-28T01:03:18.482Z,100926.38
2022-11-28T01:05:45.522Z,100924.09
2022-11-28T01:08:11.932Z,100921.81
2022-11-28T01:10:44.118Z,100915.69
2022-11-28T01:13:11.184Z,100907.13
2022-11-28T01:15:41.565Z,100910.41
2022-11-28T01:18:08.203Z,100907.63
2022-11-28T01:20:34.838Z,100912.53
2022-11-28T01:23:01.622Z,100912.22
2022-11-28T01:25:28.178Z,100910.84
2022-11-28T01:27:54.596Z,100898.50
2022-11-28T01:30:21.012Z,100891.47
2022-11-28T01:32:47.417Z,100894.78
2022-11-28T01:35:13.841Z,100923.25
2022-11-28T01:37:40.257Z,100924.63
2022-11-28T01:40:07.473Z,100923.06
2022-11-28T01:42:34.186Z,100910.44
2022-11-28T01:45:32.722Z,100904.91
2022-11-28T01:48:02.734Z,100896.78
2022-11-28T01:50:33.016Z,100869.97
2022-11-28T01:53:04.194Z,100869.66
2022-11-28T01:55:35.329Z,100868.91
2022-11-28T01:58:01.789Z,100867.53
2022-11-28T02:00:28.259Z,100873.69
2022-11-28T02:03:05.173Z,100871.25
2022-11-28T02:05:31.613Z,100852.41
2022-11-28T02:07:58.133Z,100844.94
2022-11-28T02:10:35.638Z,100832.22
2022-11-28T02:13:07.993Z,100829.16
2022-11-28T02:16:05.436Z,100825.59
2022-11-28T02:19:02.955Z,100827.19
2022-11-28T02:21:54.994Z,100837.53
2022-11-28T02:25:07.022Z,100825.22
2022-11-28T02:27:58.218Z,100829.41
2022-11-28T02:30:52.735Z,100828.53
2022-11-28T02:33:29.685Z,100820.09
2022-11-28T02:36:05.678Z,100818.97
2022-11-28T02:39:14.340Z,100817.88
2022-11-28T02:41:53.933Z,100804.97
2022-11-28T02:44:32.090Z,100809.81
2022-11-28T02:47:20.939Z,100803.88
2022-11-28T02:49:53.827Z,100801.81
2022-11-28T02:52:44.499Z,100802.69
2022-11-28T02:55:12.693Z,100796.66
2022-11-28T02:57:43.377Z,100802.09
2022-11-28T03:00:31.687Z,100817.53
2022-11-28T03:03:16.929Z,100821.09
2022-11-28T03:06:22.560Z,100823.66
2022-11-28T03:09:09.180Z,100806.00
2022-11-28T03:11:45.261Z,100812.38
2022-11-28T03:14:50.914Z,100779.91
2022-11-28T03:17:47.418Z,100778.97
2022-11-28T03:20:38.821Z,100753.03
2022-11-28T03:23:32.329Z,100744.78
2022-11-28T03:26:01.722Z,100752.38
2022-11-28T03:28:43.606Z,100751.69
2022-11-28T03:31:22.730Z,100747.28
2022-11-28T03:33:55.134Z,100740.50
2022-11-28T03:36:27.554Z,100746.56
2022-11-28T03:39:01.800Z,100747.41
2022-11-28T03:41:36.787Z,100740.47
2022-11-28T03:44:07.671Z,100747.84
2022-11-28T03:46:41.687Z,100747.03
2022-11-28T03:49:10.370Z,100742.03
2022-11-28T03:51:44.512Z,100749.63
2022-11-28T03:54:13.283Z,100748.09
2022-11-28T03:56:45.300Z,100763.69
2022-11-28T03:59:30.859Z,100750.31
2022-11-28T04:02:09.351Z,100758.44
2022-11-28T04:04:50.795Z,100740.19
2022-11-28T04:07:39.892Z,100733.25
2022-11-28T04:10:31.114Z,100735.56
2022-11-28T04:13:31.540Z,100744.63
2022-11-28T04:16:19.072Z,100742.78
2022-11-28T04:19:03.155Z,100740.72
2022-11-28T04:21:55.445Z,100745.72
2022-11-28T04:24:27.324Z,100729.41
2022-11-28T04:27:17.663Z,100688.81
2022-11-28T04:29:53.010Z,100695.44
2022-11-28T04:32:21.247Z,100697.69
2022-11-28T04:34:53.621Z,100700.06
2022-11-28T04:37:23.305Z,100705.84
2022-11-28T04:39:51.220Z,100697.38
2022-11-28T04:42:32.330Z,100689.16
2022-11-28T04:45:11.804Z,100698.97
2022-11-28T04:47:38.535Z,100694.38
2022-11-28T04:50:05.975Z,100691.75
2022-11-28T04:52:44.861Z,100689.66
2022-11-28T04:55:26.916Z,100699.88
2022-11-28T04:58:02.610Z,100698.97
2022-11-28T05:00:29.318Z,100695.66
2022-11-28T05:02:56.810Z,100695.97
2022-11-28T05:05:26.125Z,100683.84
2022-11-28T05:07:53.046Z,100687.25
2022-11-28T05:10:20.054Z,100680.88
2022-11-28T05:12:46.500Z,100684.03
2022-11-28T05:15:12.965Z,100676.28
2022-11-28T05:17:42.364Z,100676.53
2022-11-28T05:20:09.677Z,100684.75
2022-11-28T05:22:36.111Z,100697.84
2022-11-28T05:25:02.595Z,100678.81
2022-11-28T05:27:29.276Z,100685.84
2022-11-28T05:29:55.705Z,100678.22
2022-11-28T05:32:22.103Z,100665.06
2022-11-28T05:34:48.558Z,100680.41
2022-11-28T05:37:15.687Z,100684.13
2022-11-28T05:39:42.379Z,100687.06
2022-11-28T05:42:09.175Z,100696.88
2022-11-28T05:44:37.095Z,100702.78
2022-11-28T05:47:04.041Z,100708.91
2022-11-28T05:49:30.802Z,100707.31
2022-11-28T05:51:57.658Z,100707.84
2022-11-28T05:54:24.349Z,100716.81
2022-11-28T05:56:51.213Z,100718.91
2022-11-28T05:59:18.058Z,100717.72
2022-11-28T06:01:44.582Z,100723.69
2022-11-28T06:04:11.225Z,100717.47
2022-11-28T06:06:37.820Z,100712.66
2022-11-28T06:09:06.025Z,100724.25
2022-11-28T06:11:34.125Z,100703.97
2022-11-28T06:14:01.187Z,100711.47
2022-11-28T06:16:29.797Z,100718.69
2022-11-28T06:18:58.722Z,100719.06
2022-11-28T06:21:26.008Z,100718.78
2022-11-28T06:23:53.102Z,100710.50
2022-11-28T06:26:22.643Z,100705.50
2022-11-28T06:28:49.681Z,100702.59
2022-11-28T06:31:19.057Z,100709.16
2022-11-28T06:33:45.905Z,100718.78
2022-11-28T06:36:14.006Z,100722.09
2022-11-28T06:38:40.920Z,100727.06
2022-11-28T06:41:10.562Z,100721.63
2022-11-28T06:43:37.409Z,100727.59
2022-11-28T06:46:04.274Z,100729.31
2022-11-28T06:48:30.758Z,100730.72
2022-11-28T06:51:05.469Z,100737.19
2022-11-28T06:53:32.595Z,100745.44
2022-11-28T06:56:05.705Z,100742.59
2022-11-28T06:58:32.124Z,100745.56
2022-11-28T07:01:05.895Z,100743.25
2022-11-28T07:03:32.386Z,100750.03
2022-11-28T07:06:01.386Z,100754.00
2022-11-28T07:08:27.868Z,100748.22
2022-11-28T07:10:54.401Z,100752.31
2022-11-28T07:13:20.802Z,100740.75
2022-11-28T07:15:51.578Z,100742.00
2022-11-28T07:18:18.160Z,100739.53
2022-11-28T07:20:44.601Z,100730.81
2022-11-28T07:23:11.177Z,100742.84
2022-11-28T07:25:37.597Z,100748.38
2022-11-28T07:28:04.173Z,100739.47
2022-11-28T07:30:31.001Z,100744.50
2022-11-28T07:32:57.413Z,100733.78
2022-11-28T07:35:24.389Z,100725.22
2022-11-28T07:37:50.854Z,100713.00
2022-11-28T07:40:19.642Z,100691.59
2022-11-28T07:42:46.669Z,100680.09
2022-11-28T07:45:13.110Z,100679.47
2022-11-28T07:47:39.494Z,100689.56
2022-11-28T07:50:06.649Z,100746.31
2022-11-28T07:52:33.164Z,100751.81
2022-11-28T07:54:59.577Z,100744.78
2022-11-28T07:57:26.038Z,100743.84
2022-11-28T07:59:52.506Z,100739.69
2022-11-28T08:02:18.979Z,100748.09
2022-11-28T08:04:50.443Z,100744.44
2022-11-28T08:07:19.710Z,100741.34
2022-11-28T08:09:46.278Z,100741.81
2022-11-28T08:12:12.693Z,100727.06
2022-11-28T08:14:39.114Z,100738.78
2022-11-28T08:17:05.594Z,100741.16
2022-11-28T08:19:35.396Z,100736.56
2022-11-28T08:22:02.634Z,100735.75
2022-11-28T08:24:29.058Z,100734.44
2022-11-28T08:26:55.556Z,100743.06
2022-11-28T08:29:22.108Z,100741.44
2022-11-28T08:31:48.589Z,100743.16
2022-11-28T08:34:15.113Z,100758.56
2022-11-28T08:36:43.306Z,100764.91
2022-11-28T08:39:26.785Z,100765.72
2022-11-28T08:41:57.148Z,100770.78
2022-11-28T08:44:23.776Z,100771.44
2022-11-28T08:46:50.232Z,100774.06
2022-11-28T08:49:16.770Z,100769.84
2022-11-28T08:51:43.272Z,100769.72
2022-11-28T08:54:09.701Z,100778.41
2022-11-28T08:56:36.169Z,100780.66
2022-11-28T08:59:02.976Z,100789.22
2022-11-28T09:01:29.466Z,100790.13
2022-11-28T09:03:56.857Z,100785.50
2022-11-28T09:06:23.966Z,100793.75
2022-11-28T09:08:51.404Z,100805.41
2022-11-28T09:11:21.126Z,100806.47
2022-11-28T09:13:48.231Z,100802.91
2022-11-28T09:16:15.887Z,100782.56
2022-11-28T09:18:42.873Z,100788.94
2022-11-28T09:21:11.829Z,100792.56
2022-11-28T09:23:40.917Z,100785.25
2022-11-28T09:26:12.378Z,100787.50
2022-11-28T09:28:39.180Z,100792.91
2022-11-28T09:31:06.758Z,100791.72
2022-11-28T09:33:34.120Z,100801.91
2022-11-28T09:36:05.706Z,100792.97
2022-11-28T09:38:32.150Z,100791.56
2022-11-28T09:40:58.857Z,100788.56
2022-11-28T09:43:36.378Z,100793.97
2022-11-28T09:46:09.886Z,100796.72
2022-11-28T09:48:44.576Z,100784.78
2022-11-28T09:51:33.906Z,100790.00
2022-11-28T09:54:21.099Z,100793.78
2022-11-28T09:56:49.152Z,100798.22
2022-11-28T09:59:27.247Z,100796.78
2022-11-28T10:02:34.851Z,100800.56
2022-11-28T10:05:04.272Z,100797.91
2022-11-28T10:08:24.258Z,100797.56
2022-11-28T10:11:01.821Z,100791.84
2022-11-28T10:14:06.562Z,100793.22
2022-11-28T10:16:49.791Z,100793.81
2022-11-28T10:19:53.320Z,100795.66
2022-11-28T10:22:20.230Z,100792.00
2022-11-28T10:24:59.686Z,100792.66
2022-11-28T10:27:35.743Z,100792.69
2022-11-28T10:30:11.042Z,100791.66
2022-11-28T10:32:42.217Z,100790.28
2022-11-28T10:35:28.756Z,100790.84
2022-11-28T10:37:55.443Z,100787.94
2022-11-28T10:40:28.195Z,100797.13
2022-11-28T10:43:19.645Z,100797.97
2022-11-28T10:46:04.642Z,100793.56
2022-11-28T10:48:40.999Z,100782.78
2022-11-28T10:51:35.270Z,100787.22
2022-11-28T10:54:04.758Z,100787.22
2022-11-28T10:56:38.536Z,100787.38
2022-11-28T10:59:27.878Z,100780.59
2022-11-28T11:01:56.161Z,100779.06
2022-11-28T11:04:23.837Z,100783.00
2022-11-28T11:07:16.134Z,100787.31
2022-11-28T11:09:45.296Z,100789.81
2022-11-28T11:12:21.513Z,100786.38
2022-11-28T11:14:47.962Z,100783.16
2022-11-28T11:17:29.038Z,100785.88
2022-11-28T11:19:59.145Z,100780.25
2022-11-28T11:22:31.911Z,100778.94
2022-11-28T11:25:15.914Z,100780.13
2022-11-28T11:27:51.219Z,100784.56
2022-11-28T11:30:27.259Z,100780.81
2022-11-28T11:32:55.942Z,100789.00
2022-11-28T11:35:31.693Z,100786.44
2022-11-28T11:38:14.878Z,100788.16
2022-11-28T11:40:41.386Z,100795.19
2022-11-28T11:43:25.942Z,100789.75
2022-11-28T11:46:13.224Z,100792.78
2022-11-28T11:48:42.245Z,100798.41
2022-11-28T11:51:22.371Z,100791.19
2022-11-28T11:53:59.313Z,100791.63
2022-11-28T11:56:27.817Z,100787.50
2022-11-28T11:58:55.941Z,100790.44
2022-11-28T12:01:23.000Z,100797.41
2022-11-28T12:03:56.786Z,100790.44
2022-11-28T12:06:29.056Z,100789.97
2022-11-28T12:09:11.587Z,100794.47
2022-11-28T12:11:47.296Z,100789.72
2022-11-28T12:14:26.864Z,100793.63
2022-11-28T12:17:40.415Z,100797.22
2022-11-28T12:20:28.190Z,100795.41
2022-11-28T12:23:02.221Z,100789.22
2022-11-28T12:25:33.575Z,100799.44
2022-11-28T12:28:18.335Z,100794.81
2022-11-28T12:31:05.324Z,100804.91
2022-11-28T12:33:42.829Z,100796.69
2022-11-28T12:36:19.158Z,100794.13
2022-11-28T12:39:02.940Z,100801.41
2022-11-28T12:42:09.472Z,100792.59
2022-11-28T12:45:11.269Z,100796.31
2022-11-28T12:48:21.908Z,100798.91
2022-11-28T12:51:17.223Z,100796.53
2022-11-28T12:53:46.610Z,100786.19
2022-11-28T12:56:45.305Z,100785.75
2022-11-28T12:59:29.367Z,100788.00
2022-11-28T13:01:56.044Z,100789.59
2022-11-28T13:04:37.362Z,100778.22
2022-11-28T13:07:42.740Z,100783.19
2022-11-28T13:10:38.416Z,100786.44
2022-11-28T13:13:19.751Z,100787.72
2022-11-28T13:16:07.338Z,100769.91
2022-11-28T13:18:47.911Z,100774.31
2022-11-28T13:21:33.645Z,100772.22
2022-11-28T13:24:07.501Z,100770.41
2022-11-28T13:27:00.895Z,100766.88
2022-11-28T13:29:36.675Z,100765.91
2022-11-28T13:32:15.098Z,100770.94
2022-11-28T13:34:41.995Z,100757.44
2022-11-28T13:40:42.621Z,100763.84
2022-11-28T13:43:25.473Z,100771.16
2022-11-28T13:45:52.548Z,100766.31
2022-11-28T13:49:06.033Z,100763.78
2022-11-28T13:51:30.498Z,100771.41
2022-11-28T13:54:17.043Z,100769.75
2022-11-28T13:56:45.796Z,100766.72
2022-11-28T13:59:20.983Z,100787.53
2022-11-28T14:01:57.947Z,100775.63
2022-11-28T14:04:26.618Z,100773.63
2022-11-28T14:07:01.642Z,100772.31
2022-11-28T14:09:49.686Z,100769.25
2022-11-28T14:12:25.055Z,100770.44
2022-11-28T14:15:19.332Z,100774.59
2022-11-28T14:17:59.379Z,100771.94
2022-11-28T14:20:50.739Z,100769.75
2022-11-28T14:23:46.520Z,100770.09
2022-11-28T14:26:42.758Z,100770.09
2022-11-28T14:29:26.815Z,100764.00
2022-11-28T14:32:21.579Z,100768.41
2022-11-28T14:34:48.714Z,100764.69
2022-11-28T14:37:27.202Z,100762.75
2022-11-28T14:39:56.243Z,100765.56
2022-11-28T14:42:51.964Z,100764.69
2022-11-28T14:45:30.447Z,100779.38
2022-11-28T14:48:27.442Z,100778.38
2022-11-28T14:51:01.005Z,100786.50
2022-11-28T14:53:44.134Z,100782.28
2022-11-28T14:56:13.656Z,100785.94
2022-11-28T14:58:47.177Z,100774.16
2022-11-28T15:01:20.603Z,100781.94
2022-11-28T15:04:22.515Z,100785.25
2022-11-28T15:06:50.265Z,100782.56
2022-11-28T15:09:19.754Z,100786.19
2022-11-28T15:12:27.307Z,100787.53
2022-11-28T15:14:57.725Z,100788.66
2022-11-28T15:17:30.680Z,100790.03
2022-11-28T15:20:01.530Z,100789.97
2022-11-28T15:22:43.030Z,100785.50
2022-11-28T15:25:24.317Z,100795.84
2022-11-28T15:27:51.428Z,100803.31
2022-11-28T15:30:20.191Z,100806.13
2022-11-28T15:32:47.236Z,100791.19
2022-11-28T15:35:16.198Z,100796.44
2022-11-28T15:37:54.924Z,100797.78
2022-11-28T15:40:25.511Z,100797.47
2022-11-28T15:42:52.413Z,100803.47
2022-11-28T15:45:25.574Z,100800.56
2022-11-28T15:47:53.478Z,100801.47
2022-11-28T15:50:25.576Z,100804.78
2022-11-28T15:53:04.270Z,100809.69
2022-11-28T15:55:33.582Z,100804.19
2022-11-28T15:58:19.079Z,100800.00
2022-11-28T16:00:52.083Z,100813.78
2022-11-28T16:03:24.438Z,100808.44
2022-11-28T16:05:54.585Z,100810.59
2022-11-28T16:08:28.418Z,100813.69
2022-11-28T16:10:55.743Z,100811.44
2022-11-28T16:13:24.936Z,100816.97
2022-11-28T16:15:56.016Z,100814.13
2022-11-28T16:18:25.423Z,100811.31
2022-11-28T16:20:52.097Z,100817.44
2022-11-28T16:23:32.915Z,100819.38
2022-11-28T16:26:01.708Z,100813.47
2022-11-28T16:28:40.659Z,100816.31
2022-11-28T16:31:12.261Z,100812.16
2022-11-28T16:33:45.851Z,100822.72
2022-11-28T16:36:23.356Z,100819.47
2022-11-28T16:38:52.819Z,100821.06
2022-11-28T16:41:27.702Z,100824.66
2022-11-28T16:44:00.462Z,100824.50
2022-11-28T16:46:35.899Z,100822.91
2022-11-28T16:49:03.434Z,100824.28
2022-11-28T16:51:33.018Z,100828.84
2022-11-28T16:54:20.450Z,100840.41
2022-11-28T16:56:47.369Z,100845.53
2022-11-28T16:59:19.451Z,100850.56
2022-11-28T17:01:48.492Z,100844.44
2022-11-28T17:04:29.205Z,100849.56
2022-11-28T17:06:58.138Z,100846.59
2022-11-28T17:09:24.628Z,100855.47
2022-11-28T17:12:07.407Z,100853.34
2022-11-28T17:14:34.253Z,100855.63
2022-11-28T17:17:03.506Z,100856.88
2022-11-28T17:19:30.000Z,100860.44
2022-11-28T17:21:58.814Z,100865.59
2022-11-28T17:24:29.233Z,100867.84
2022-11-28T17:26:55.675Z,100858.72
2022-11-28T17:29:22.635Z,100863.34
2022-11-28T17:31:50.150Z,100863.66
2022-11-28T17:34:23.210Z,100877.47
2022-11-28T17:36:50.165Z,100870.56
2022-11-28T17:39:17.807Z,100865.25
2022-11-28T17:41:44.731Z,100868.91
2022-11-28T17:44:24.199Z,100865.34
2022-11-28T17:46:52.735Z,100865.69
2022-11-28T17:49:19.835Z,100861.72
2022-11-28T17:51:46.834Z,100866.41
2022-11-28T17:54:19.117Z,100875.97
2022-11-28T17:56:46.720Z,100877.59
2022-11-28T17:59:17.640Z,100863.47
2022-11-28T18:01:47.870Z,100868.03
2022-11-28T18:04:14.781Z,100864.41
2022-11-28T18:06:45.842Z,100889.63
2022-11-28T18:09:13.977Z,100897.50
2022-11-28T18:11:42.900Z,100898.50
2022-11-28T18:14:10.385Z,100903.16
2022-11-28T18:16:38.143Z,100907.41
2022-11-28T18:19:04.590Z,100903.66
2022-11-28T18:21:31.943Z,100898.50
2022-11-28T18:23:58.565Z,100903.19
2022-11-28T18:26:26.122Z,100910.47
2022-11-28T18:28:54.417Z,100914.66
2022-11-28T18:31:27.020Z,100927.66
2022-11-28T18:34:01.479Z,100931.47
2022-11-28T18:36:30.512Z,100941.22
2022-11-28T18:39:04.358Z,100936.94
2022-11-28T18:41:31.212Z,100941.31
2022-11-28T18:43:59.574Z,100943.25
2022-11-28T18:46:34.975Z,100945.66
2022-11-28T18:49:06.773Z,100952.69
2022-11-28T18:51:34.874Z,100959.19
2022-11-28T18:54:05.638Z,100952.19
2022-11-28T18:56:32.665Z,100954.81
2022-11-28T18:58:59.488Z,100950.41
2022-11-28T19:01:30.027Z,100949.53
2022-11-28T19:04:02.102Z,100950.41
2022-11-28T19:06:29.581Z,100935.38
2022-11-28T19:08:58.545Z,100935.88
2022-11-28T19:11:25.953Z,100940.16
2022-11-28T19:13:53.458Z,100941.31
2022-11-28T19:16:26.304Z,100935.97
2022-11-28T19:18:53.344Z,100942.25
2022-11-28T19:21:22.419Z,100938.78
2022-11-28T19:23:49.690Z,100933.59
2022-11-28T19:26:21.798Z,100951.81
2022-11-28T19:28:49.114Z,100944.22
2022-11-28T19:31:21.211Z,100947.50
2022-11-28T19:34:00.253Z,100944.47
2022-11-28T19:36:29.001Z,100946.63
2022-11-28T19:38:55.456Z,100940.59
2022-11-28T19:41:22.371Z,100928.59
2022-11-28T19:43:49.000Z,100941.13
2022-11-28T19:46:16.004Z,100939.59
2022-11-28T19:48:42.699Z,100946.75
2022-11-28T19:51:12.153Z,100951.31
2022-11-28T19:53:41.401Z,100953.81
2022-11-28T19:56:27.286Z,100960.69
2022-11-28T19:58:53.716Z,100964.13
2022-11-28T20:01:23.172Z,100963.84
2022-11-28T20:03:50.203Z,100963.25
2022-11-28T20:06:19.475Z,100965.84
2022-11-28T20:08:47.741Z,100971.03
2022-11-28T20:11:19.910Z,100961.09
2022-11-28T20:13:48.066Z,100970.03
2022-11-28T20:16:16.706Z,100959.00
2022-11-28T20:18:44.301Z,100967.75
2022-11-28T20:21:14.104Z,100970.56
2022-11-28T20:23:42.355Z,100965.13
2022-11-28T20:26:09.624Z,100977.38
2022-11-28T20:28:38.157Z,100972.81
2022-11-28T20:31:06.113Z,100983.41
2022-11-28T20:33:32.681Z,100986.03
2022-11-28T20:36:06.418Z,100982.53
2022-11-28T20:38:33.058Z,100984.81
2022-11-28T20:41:04.451Z,100989.50
2022-11-28T20:43:31.850Z,100986.34
2022-11-28T20:46:20.039Z,100995.06
2022-11-28T20:48:47.282Z,100989.25
2022-11-28T20:51:24.699Z,100997.25
2022-11-28T20:53:52.469Z,101002.44
2022-11-28T20:56:24.343Z,101002.50
2022-11-28T20:58:51.934Z,100996.59
2022-11-28T21:01:19.786Z,101010.66
2022-11-28T21:03:46.518Z,101002.59
2022-11-28T21:06:13.145Z,101014.91
2022-11-28T21:08:40.297Z,101008.75
2022-11-28T21:11:43.369Z,101013.91
2022-11-28T21:14:05.549Z,101019.25
2022-11-28T21:16:33.294Z,101028.84
2022-11-28T21:19:04.843Z,101021.81
2022-11-28T21:21:35.705Z,101032.31
2022-11-28T21:24:10.597Z,101033.88
2022-11-28T21:26:41.715Z,101031.59
2022-11-28T21:29:11.732Z,101036.00
2022-11-28T21:31:41.691Z,101044.03
2022-11-28T21:34:14.307Z,101042.59
2022-11-28T21:36:41.285Z,101045.63
2022-11-28T21:39:07.678Z,101057.00
2022-11-28T21:41:34.122Z,101059.63
2022-11-28T21:44:00.673Z,101069.13
2022-11-28T21:46:27.712Z,101065.59
2022-11-28T21:48:54.238Z,101069.84
2022-11-28T21:51:24.363Z,101077.97
2022-11-28T21:53:51.403Z,101071.75
2022-11-28T21:56:18.281Z,101076.09
2022-11-28T21:58:44.783Z,101086.84
2022-11-28T22:01:12.965Z,101079.88
2022-11-28T22:03:40.513Z,101080.72
2022-11-28T22:06:12.782Z,101085.06
2022-11-28T22:08:39.177Z,101092.03
2022-11-28T22:11:11.039Z,101093.06
2022-11-28T22:13:38.488Z,101093.94
2022-11-28T22:16:11.935Z,101092.31
2022-11-28T22:18:38.645Z,101098.84
2022-11-28T22:21:28.760Z,101099.09
2022-11-28T22:23:53.450Z,101091.84
2022-11-28T22:26:19.862Z,101097.34
2022-11-28T22:28:53.097Z,101104.22
2022-11-28T22:31:20.420Z,101106.81
2022-11-28T22:33:49.439Z,101114.06
2022-11-28T22:36:18.586Z,101121.94
2022-11-28T22:38:46.351Z,101115.78
2022-11-28T22:41:15.515Z,101122.88
2022-11-28T22:43:42.166Z,101126.41
2022-11-28T22:46:09.831Z,101127.25
2022-11-28T22:48:37.726Z,101136.66
2022-11-28T22:51:09.671Z,101147.16
2022-11-28T22:53:36.332Z,101144.53
2022-11-28T22:56:07.969Z,101142.09
2022-11-28T22:58:40.961Z,101139.22
2022-11-28T23:01:14.135Z,101140.97
2022-11-28T23:03:41.248Z,101131.41
2022-11-28T23:06:17.289Z,101138.84
2022-11-28T23:08:44.713Z,101138.13
2022-11-28T23:11:20.850Z,101133.13
2022-11-28T23:13:49.066Z,101130.50
2022-11-28T23:16:26.982Z,101130.44
2022-11-28T23:18:55.463Z,101130.59
2022-11-28T23:21:23.009Z,101139.41
2022-11-28T23:23:49.571Z,101134.41
2022-11-28T23:26:18.710Z,101126.28
2022-11-28T23:28:45.571Z,101125.25
2022-11-28T23:31:17.650Z,101120.97
2022-11-28T23:33:44.790Z,101116.75
2022-11-28T23:36:41.414Z,101120.38
2022-11-28T23:39:20.577Z,101131.69
2022-11-28T23:41:47.380Z,101123.81
2022-11-28T23:44:15.450Z,101133.34
2022-11-28T23:46:42.672Z,101121.03
2022-11-28T23:49:10.010Z,101120.28
2022-11-28T23:51:37.210Z,101114.19
2022-11-28T23:54:04.105Z,101113.50
2022-11-28T23:56:33.610Z,101112.47
2022-11-28T23:59:02.188Z,101123.91
